createdAt,value
2018-05-07T00:02:12.994Z,15.89
2018-05-07T00:04:39.373Z,15.89
2018-05-07T00:07:05.661Z,15.85
2018-05-07T00:09:31.947Z,15.84
2018-05-07T00:11:58.223Z,15.83
2018-05-07T00:14:24.478Z,15.82
2018-05-07T00:16:50.792Z,15.78
2018-05-07T00:19:17.036Z,15.78
2018-05-07T00:21:43.286Z,15.76
2018-05-07T00:24:09.687Z,15.73
2018-05-07T00:26:35.964Z,15.70
2018-05-07T00:29:02.178Z,15.66
2018-05-07T00:31:28.398Z,15.64
2018-05-07T00:33:54.615Z,15.58
2018-05-07T00:36:21.066Z,15.50
2018-05-07T00:38:47.278Z,15.49
2018-05-07T00:41:13.502Z,15.47
2018-05-07T00:43:39.850Z,15.43
2018-05-07T00:46:06.093Z,15.38
2018-05-07T00:48:32.314Z,15.34
2018-05-07T00:50:58.555Z,15.31
2018-05-07T00:53:24.766Z,15.29
2018-05-07T00:55:51.122Z,15.30
2018-05-07T00:58:17.402Z,15.28
2018-05-07T01:00:43.618Z,15.25
2018-05-07T01:03:09.894Z,15.22
2018-05-07T01:05:36.171Z,15.20
2018-05-07T01:08:02.419Z,15.21
2018-05-07T01:10:28.655Z,15.18
2018-05-07T01:12:54.915Z,15.16
2018-05-07T01:15:21.229Z,15.17
2018-05-07T01:17:47.463Z,15.17
2018-05-07T01:20:13.711Z,15.14
2018-05-07T01:22:39.934Z,15.13
2018-05-07T01:25:06.179Z,15.06
2018-05-07T01:27:32.505Z,14.97
2018-05-07T01:29:58.797Z,14.91
2018-05-07T01:32:25.010Z,14.86
2018-05-07T01:34:51.255Z,14.82
2018-05-07T01:37:18.142Z,14.79
2018-05-07T01:39:44.367Z,14.75
2018-05-07T01:42:10.622Z,14.70
2018-05-07T01:44:36.845Z,14.66
2018-05-07T01:47:03.107Z,14.57
2018-05-07T01:49:29.344Z,14.53
2018-05-07T01:51:55.563Z,14.51
2018-05-07T01:54:21.832Z,14.48
2018-05-07T01:56:48.046Z,14.44
2018-05-07T01:59:14.262Z,14.41
2018-05-07T02:01:40.510Z,14.41
2018-05-07T02:04:06.750Z,14.38
2018-05-07T02:06:33.014Z,14.33
2018-05-07T02:08:59.229Z,14.28
2018-05-07T02:11:25.478Z,14.18
2018-05-07T02:13:51.715Z,14.12
2018-05-07T02:16:17.965Z,14.05
2018-05-07T02:18:44.186Z,14.01
2018-05-07T02:21:10.409Z,13.97
2018-05-07T02:23:36.658Z,13.97
2018-05-07T02:26:02.912Z,13.94
2018-05-07T02:28:29.170Z,13.86
2018-05-07T02:30:55.391Z,13.84
2018-05-07T02:33:21.635Z,13.78
2018-05-07T02:35:47.859Z,13.74
2018-05-07T02:38:14.110Z,13.71
2018-05-07T02:40:40.324Z,13.67
2018-05-07T02:43:06.542Z,13.61
2018-05-07T02:45:32.787Z,13.58
2018-05-07T02:47:59.088Z,13.51
2018-05-07T02:50:25.326Z,13.43
2018-05-07T02:52:51.551Z,13.41
2018-05-07T02:55:17.801Z,13.38
2018-05-07T02:57:44.009Z,13.34
2018-05-07T03:00:10.273Z,13.25
2018-05-07T03:02:36.504Z,13.20
2018-05-07T03:05:02.767Z,13.19
2018-05-07T03:07:29.023Z,13.13
2018-05-07T03:09:55.262Z,13.10
2018-05-07T03:12:21.515Z,13.05
2018-05-07T03:14:47.762Z,13.01
2018-05-07T03:17:14.031Z,13.01
2018-05-07T03:19:40.262Z,13.01
2018-05-07T03:22:06.530Z,12.98
2018-05-07T03:24:32.799Z,12.90
2018-05-07T03:26:59.018Z,12.88
2018-05-07T03:29:25.262Z,12.85
2018-05-07T03:31:51.494Z,12.83
2018-05-07T03:34:17.742Z,12.79
2018-05-07T03:36:43.971Z,12.78
2018-05-07T03:39:10.254Z,12.77
2018-05-07T03:41:36.554Z,12.75
2018-05-07T03:44:02.838Z,12.75
2018-05-07T03:46:29.103Z,12.71
2018-05-07T03:48:55.326Z,12.74
2018-05-07T03:51:21.607Z,12.73
2018-05-07T03:53:47.835Z,12.71
2018-05-07T03:56:14.099Z,12.66
2018-05-07T03:58:40.329Z,12.62
2018-05-07T04:01:06.582Z,12.62
2018-05-07T04:03:32.810Z,12.60
2018-05-07T04:05:59.079Z,12.57
2018-05-07T04:08:25.320Z,12.53
2018-05-07T04:10:52.666Z,12.50
2018-05-07T04:13:18.921Z,12.53
2018-05-07T04:15:45.246Z,12.55
2018-05-07T04:21:14.246Z,12.54
2018-05-07T04:23:52.722Z,12.53
2018-05-07T04:26:18.945Z,12.53
2018-05-07T04:28:45.220Z,12.64
2018-05-07T04:31:11.446Z,12.69
2018-05-07T04:33:37.694Z,12.69
2018-05-07T04:36:03.994Z,12.68
2018-05-07T04:38:30.218Z,12.72
2018-05-07T04:40:56.482Z,12.80
2018-05-07T04:43:22.710Z,12.86
2018-05-07T04:45:48.946Z,12.89
2018-05-07T04:48:15.169Z,12.97
2018-05-07T04:50:41.500Z,13.01
2018-05-07T04:53:07.654Z,13.03
2018-05-07T04:55:33.882Z,13.06
2018-05-07T04:58:00.126Z,13.14
2018-05-07T05:00:26.410Z,13.20
2018-05-07T05:02:52.634Z,13.24
2018-05-07T05:05:18.874Z,13.34
2018-05-07T05:07:45.098Z,13.35
2018-05-07T05:10:11.327Z,13.44
2018-05-07T05:12:37.583Z,13.45
2018-05-07T05:15:03.813Z,13.48
2018-05-07T05:17:30.036Z,13.59
2018-05-07T05:19:56.274Z,13.69
2018-05-07T05:22:22.526Z,13.79
2018-05-07T05:24:48.774Z,13.86
2018-05-07T05:27:15.073Z,13.97
2018-05-07T05:29:41.247Z,14.08
2018-05-07T05:32:07.468Z,14.24
2018-05-07T05:34:33.715Z,14.39
2018-05-07T05:36:59.978Z,14.49
2018-05-07T05:39:26.202Z,14.63
2018-05-07T05:41:52.443Z,14.76
2018-05-07T05:44:18.658Z,14.93
2018-05-07T05:46:44.935Z,15.10
2018-05-07T05:49:11.217Z,15.32
2018-05-07T05:51:37.421Z,15.43
2018-05-07T05:54:03.646Z,15.63
2018-05-07T05:56:29.991Z,15.79
2018-05-07T05:58:56.137Z,15.90
2018-05-07T06:01:22.358Z,15.99
2018-05-07T06:03:48.674Z,16.18
2018-05-07T06:06:14.884Z,16.39
2018-05-07T06:08:41.126Z,16.66
2018-05-07T06:11:07.346Z,16.89
2018-05-07T06:13:33.583Z,17.06
2018-05-07T06:15:59.797Z,17.31
2018-05-07T06:18:26.038Z,17.54
2018-05-07T06:20:52.269Z,17.75
2018-05-07T06:23:18.491Z,17.80
2018-05-07T06:25:44.734Z,18.00
2018-05-07T06:28:10.947Z,18.19
2018-05-07T06:30:37.198Z,18.40
2018-05-07T06:33:03.426Z,18.55
2018-05-07T06:35:29.671Z,18.72
2018-05-07T06:37:55.886Z,18.94
2018-05-07T06:40:22.114Z,19.15
2018-05-07T06:42:48.370Z,19.30
2018-05-07T06:45:14.662Z,19.52
2018-05-07T06:47:41.011Z,19.64
2018-05-07T06:50:07.322Z,19.81
2018-05-07T06:52:33.563Z,20.00
2018-05-07T06:54:59.773Z,20.16
2018-05-07T06:57:26.005Z,20.34
2018-05-07T06:59:52.225Z,20.50
2018-05-07T07:02:18.474Z,20.58
2018-05-07T07:04:44.730Z,20.78
2018-05-07T07:07:10.938Z,20.92
2018-05-07T07:09:37.213Z,21.00
2018-05-07T07:12:03.447Z,21.24
2018-05-07T07:14:29.694Z,21.49
2018-05-07T07:16:55.914Z,21.66
2018-05-07T07:19:22.197Z,21.86
2018-05-07T07:21:48.445Z,22.04
2018-05-07T07:24:14.654Z,22.13
2018-05-07T07:26:40.897Z,22.28
2018-05-07T07:29:07.147Z,22.49
2018-05-07T07:31:33.401Z,22.66
2018-05-07T07:33:59.647Z,22.73
2018-05-07T07:36:25.906Z,22.95
2018-05-07T07:38:52.134Z,22.99
2018-05-07T07:41:18.406Z,23.07
2018-05-07T07:43:44.632Z,23.11
2018-05-07T07:46:10.863Z,23.34
2018-05-07T07:48:37.137Z,23.58
2018-05-07T07:51:03.362Z,23.71
2018-05-07T07:53:29.703Z,23.85
2018-05-07T07:55:55.869Z,23.87
2018-05-07T07:58:22.121Z,24.14
2018-05-07T08:00:48.366Z,24.12
2018-05-07T08:03:14.626Z,24.44
2018-05-07T08:05:40.842Z,24.47
2018-05-07T08:08:07.071Z,24.81
2018-05-07T08:10:33.311Z,24.98
2018-05-07T08:12:59.517Z,25.29
2018-05-07T08:15:25.774Z,25.57
2018-05-07T08:17:51.986Z,25.78
2018-05-07T08:20:18.226Z,26.13
2018-05-07T08:22:44.450Z,26.36
2018-05-07T08:25:10.697Z,26.74
2018-05-07T08:27:36.919Z,27.19
2018-05-07T08:30:03.179Z,27.54
2018-05-07T08:32:29.410Z,28.04
2018-05-07T08:34:55.699Z,28.18
2018-05-07T08:37:21.934Z,28.41
2018-05-07T08:39:48.254Z,28.81
2018-05-07T08:42:14.598Z,28.98
2018-05-07T08:44:40.751Z,29.41
2018-05-07T08:47:06.998Z,29.81
2018-05-07T08:49:33.214Z,29.99
2018-05-07T08:51:59.442Z,30.04
2018-05-07T08:54:25.675Z,30.16
2018-05-07T08:56:51.890Z,30.24
2018-05-07T08:59:18.166Z,30.35
2018-05-07T09:01:44.386Z,30.63
2018-05-07T09:04:10.655Z,30.89
2018-05-07T09:06:36.878Z,30.96
2018-05-07T09:09:03.206Z,30.96
2018-05-07T09:11:29.422Z,31.33
2018-05-07T09:13:55.629Z,31.64
2018-05-07T09:16:21.870Z,31.72
2018-05-07T09:18:48.097Z,31.72
2018-05-07T09:21:14.353Z,31.76
2018-05-07T09:23:40.578Z,32.10
2018-05-07T09:26:06.817Z,32.39
2018-05-07T09:28:33.043Z,32.43
2018-05-07T09:30:59.299Z,32.40
2018-05-07T09:33:25.518Z,32.60
2018-05-07T09:35:51.744Z,32.54
2018-05-07T09:38:18.011Z,32.53
2018-05-07T09:40:44.230Z,32.51
2018-05-07T09:43:10.516Z,32.49
2018-05-07T09:45:36.726Z,32.62
2018-05-07T09:48:03.021Z,32.57
2018-05-07T09:50:30.261Z,32.45
2018-05-07T09:52:56.526Z,32.80
2018-05-07T09:55:22.745Z,33.06
2018-05-07T09:58:02.190Z,33.15
2018-05-07T10:00:34.418Z,33.29
2018-05-07T10:03:00.647Z,33.38
2018-05-07T10:05:26.949Z,33.37
2018-05-07T10:07:53.181Z,33.31
2018-05-07T10:10:19.433Z,33.44
2018-05-07T10:12:45.659Z,33.41
2018-05-07T10:15:11.894Z,33.24
2018-05-07T10:17:38.106Z,33.36
2018-05-07T10:20:04.354Z,33.49
2018-05-07T10:22:30.569Z,33.25
2018-05-07T10:24:56.787Z,33.28
2018-05-07T10:27:23.029Z,33.54
2018-05-07T10:29:49.257Z,33.70
2018-05-07T10:32:15.503Z,33.96
2018-05-07T10:34:41.722Z,34.01
2018-05-07T10:37:07.962Z,34.27
2018-05-07T10:39:34.173Z,34.42
2018-05-07T10:42:00.413Z,34.57
2018-05-07T10:44:26.630Z,34.79
2018-05-07T10:46:52.847Z,34.82
2018-05-07T10:49:19.081Z,34.87
2018-05-07T10:51:45.297Z,35.30
2018-05-07T10:54:11.563Z,35.48
2018-05-07T10:56:37.775Z,35.50
2018-05-07T10:59:04.036Z,35.77
2018-05-07T11:01:30.297Z,36.08
2018-05-07T11:03:56.532Z,35.82
2018-05-07T11:06:22.753Z,35.72
2018-05-07T11:08:48.966Z,35.93
2018-05-07T11:11:15.206Z,36.19
2018-05-07T11:13:41.419Z,36.15
2018-05-07T11:16:07.680Z,36.28
2018-05-07T11:18:33.909Z,36.62
2018-05-07T11:21:00.159Z,36.96
2018-05-07T11:23:26.358Z,37.15
2018-05-07T11:25:52.649Z,37.12
2018-05-07T11:28:18.871Z,37.63
2018-05-07T11:30:45.096Z,37.71
2018-05-07T11:33:11.333Z,37.98
2018-05-07T11:35:37.554Z,38.39
2018-05-07T11:38:03.789Z,38.68
2018-05-07T11:40:30.002Z,38.87
2018-05-07T11:42:56.237Z,39.13
2018-05-07T11:45:22.454Z,39.13
2018-05-07T11:47:48.708Z,39.08
2018-05-07T11:50:14.950Z,39.09
2018-05-07T11:52:41.177Z,38.97
2018-05-07T11:55:07.418Z,39.65
2018-05-07T11:57:33.638Z,39.58
2018-05-07T11:59:59.886Z,39.60
2018-05-07T12:02:26.203Z,39.63
2018-05-07T12:04:52.378Z,39.85
2018-05-07T12:07:18.606Z,40.08
2018-05-07T12:09:44.854Z,40.35
2018-05-07T12:12:11.078Z,40.23
2018-05-07T12:14:37.293Z,40.34
2018-05-07T12:17:03.572Z,40.77
2018-05-07T12:19:29.794Z,40.78
2018-05-07T12:21:56.058Z,40.63
2018-05-07T12:24:22.322Z,40.94
2018-05-07T12:26:48.586Z,40.94
2018-05-07T12:29:14.820Z,41.23
2018-05-07T12:31:41.167Z,41.59
2018-05-07T12:34:07.324Z,41.38
2018-05-07T12:36:33.537Z,41.38
2018-05-07T12:38:59.790Z,41.25
2018-05-07T12:41:26.999Z,41.00
2018-05-07T12:43:53.241Z,41.02
2018-05-07T12:46:19.485Z,41.17
2018-05-07T12:48:45.761Z,41.29
2018-05-07T12:51:11.982Z,41.47
2018-05-07T12:53:38.242Z,41.40
2018-05-07T12:56:04.487Z,41.68
2018-05-07T12:58:30.722Z,41.18
2018-05-07T13:00:56.982Z,41.12
2018-05-07T13:03:23.194Z,41.50
2018-05-07T13:05:49.484Z,41.22
2018-05-07T13:08:15.737Z,41.44
2018-05-07T13:10:42.006Z,41.48
2018-05-07T13:13:08.295Z,41.44
2018-05-07T13:15:34.502Z,41.43
2018-05-07T13:18:00.743Z,41.05
2018-05-07T13:20:26.963Z,41.25
2018-05-07T13:22:53.203Z,41.10
2018-05-07T13:25:19.427Z,40.99
2018-05-07T13:27:45.675Z,41.32
2018-05-07T13:30:11.902Z,41.55
2018-05-07T13:32:38.150Z,41.73
2018-05-07T13:35:04.382Z,41.69
2018-05-07T13:37:30.606Z,41.60
2018-05-07T13:39:56.843Z,41.64
2018-05-07T13:42:23.067Z,41.67
2018-05-07T13:44:49.302Z,41.92
2018-05-07T13:47:15.546Z,41.92
2018-05-07T13:49:41.785Z,41.94
2018-05-07T13:52:08.001Z,41.99
2018-05-07T13:54:34.244Z,41.88
2018-05-07T13:57:00.453Z,41.90
2018-05-07T13:59:26.678Z,41.91
2018-05-07T14:01:52.920Z,42.03
2018-05-07T14:04:19.134Z,41.80
2018-05-07T14:06:45.377Z,41.75
2018-05-07T14:09:11.605Z,41.71
2018-05-07T14:11:37.855Z,41.61
2018-05-07T14:14:04.082Z,41.57
2018-05-07T14:16:30.339Z,41.74
2018-05-07T14:18:56.563Z,41.78
2018-05-07T14:21:22.785Z,41.66
2018-05-07T14:23:49.046Z,41.62
2018-05-07T14:26:15.282Z,41.54
2018-05-07T14:28:41.542Z,41.42
2018-05-07T14:31:07.790Z,41.25
2018-05-07T14:33:34.094Z,41.23
2018-05-07T14:36:00.319Z,41.10
2018-05-07T14:38:26.557Z,41.18
2018-05-07T14:40:52.791Z,41.01
2018-05-07T14:43:19.018Z,40.59
2018-05-07T14:45:45.285Z,40.54
2018-05-07T14:48:11.494Z,40.14
2018-05-07T14:50:37.743Z,40.03
2018-05-07T14:53:03.987Z,39.82
2018-05-07T14:55:30.851Z,39.73
2018-05-07T14:57:57.067Z,39.53
2018-05-07T15:00:23.317Z,39.57
2018-05-07T15:02:49.533Z,39.50
2018-05-07T15:05:15.754Z,39.17
2018-05-07T15:07:44.424Z,38.97
2018-05-07T15:10:12.170Z,38.73
2018-05-07T15:12:38.435Z,38.33
2018-05-07T15:15:04.763Z,37.64
2018-05-07T15:17:30.993Z,37.18
2018-05-07T15:19:57.210Z,36.78
2018-05-07T15:22:23.481Z,36.44
2018-05-07T15:24:49.682Z,35.98
2018-05-07T15:27:15.902Z,35.50
2018-05-07T15:29:42.177Z,34.55
2018-05-07T15:32:08.545Z,33.87
2018-05-07T15:34:34.802Z,33.41
2018-05-07T15:37:01.247Z,32.53
2018-05-07T15:39:27.684Z,31.77
2018-05-07T15:41:53.959Z,31.01
2018-05-07T15:44:20.210Z,30.40
2018-05-07T15:46:46.422Z,30.00
2018-05-07T15:49:12.798Z,29.63
2018-05-07T15:51:39.097Z,29.50
2018-05-07T15:54:05.431Z,29.26
2018-05-07T15:56:31.670Z,29.03
2018-05-07T15:58:57.994Z,28.77
2018-05-07T16:01:24.527Z,28.66
2018-05-07T16:03:50.980Z,28.33
2018-05-07T16:06:17.493Z,28.03
2018-05-07T16:08:43.707Z,27.96
2018-05-07T16:11:09.930Z,27.77
2018-05-07T16:13:36.420Z,27.59
2018-05-07T16:16:02.641Z,27.54
2018-05-07T16:18:28.962Z,27.42
2018-05-07T16:20:55.387Z,27.41
2018-05-07T16:23:21.862Z,27.28
2018-05-07T16:25:47.975Z,27.16
2018-05-07T16:28:14.225Z,26.99
2018-05-07T16:30:40.503Z,26.97
2018-05-07T16:33:06.904Z,26.89
2018-05-07T16:35:33.147Z,26.76
2018-05-07T16:37:59.419Z,26.71
2018-05-07T16:40:25.746Z,26.66
2018-05-07T16:42:52.155Z,26.60
2018-05-07T16:45:18.333Z,26.56
2018-05-07T16:47:44.558Z,26.48
2018-05-07T16:50:10.920Z,26.33
2018-05-07T16:52:37.183Z,26.20
2018-05-07T16:55:03.394Z,26.11
2018-05-07T16:57:29.789Z,26.05
2018-05-07T16:59:56.035Z,25.93
2018-05-07T17:02:22.570Z,25.94
2018-05-07T17:04:48.795Z,25.86
2018-05-07T17:07:15.318Z,25.84
2018-05-07T17:09:41.620Z,25.80
2018-05-07T17:12:07.847Z,25.67
2018-05-07T17:14:34.137Z,25.61
2018-05-07T17:17:00.403Z,25.61
2018-05-07T17:19:26.726Z,25.57
2018-05-07T17:21:53.035Z,25.45
2018-05-07T17:24:19.504Z,25.48
2018-05-07T17:26:45.829Z,25.44
2018-05-07T17:29:12.224Z,25.28
2018-05-07T17:31:38.642Z,25.25
2018-05-07T17:34:05.324Z,25.13
2018-05-07T17:36:31.478Z,25.08
2018-05-07T17:38:57.823Z,25.07
2018-05-07T17:41:24.135Z,25.02
2018-05-07T17:43:50.499Z,24.97
2018-05-07T17:46:28.943Z,24.90
2018-05-07T17:48:56.298Z,24.89
2018-05-07T17:51:22.520Z,24.79
2018-05-07T17:53:48.770Z,24.67
2018-05-07T17:56:15.154Z,24.62
2018-05-07T17:58:41.396Z,24.54
2018-05-07T18:01:07.625Z,24.48
2018-05-07T18:03:33.890Z,24.43
2018-05-07T18:06:00.168Z,24.39
2018-05-07T18:08:26.428Z,24.23
2018-05-07T18:10:52.677Z,24.13
2018-05-07T18:13:18.919Z,24.01
2018-05-07T18:15:45.166Z,23.92
2018-05-07T18:18:11.386Z,23.90
2018-05-07T18:20:37.633Z,23.87
2018-05-07T18:23:03.882Z,23.84
2018-05-07T18:25:30.178Z,23.78
2018-05-07T18:27:56.418Z,23.70
2018-05-07T18:30:23.380Z,23.63
2018-05-07T18:32:49.639Z,23.52
2018-05-07T18:35:15.871Z,23.44
2018-05-07T18:37:42.121Z,23.33
2018-05-07T18:40:08.353Z,23.23
2018-05-07T18:42:34.627Z,23.14
2018-05-07T18:45:00.866Z,23.04
2018-05-07T18:47:27.135Z,22.93
2018-05-07T18:49:53.361Z,22.86
2018-05-07T18:52:19.822Z,22.79
2018-05-07T18:54:46.090Z,22.68
2018-05-07T18:57:12.496Z,22.58
2018-05-07T18:59:38.758Z,22.52
2018-05-07T19:02:05.139Z,22.37
2018-05-07T19:04:31.437Z,22.29
2018-05-07T19:06:57.669Z,22.19
2018-05-07T19:09:24.178Z,22.16
2018-05-07T19:11:50.420Z,22.08
2018-05-07T19:14:16.852Z,22.02
2018-05-07T19:16:43.139Z,21.94
2018-05-07T19:19:09.354Z,21.86
2018-05-07T19:21:35.601Z,21.78
2018-05-07T19:24:01.866Z,21.68
2018-05-07T19:26:28.159Z,21.59
2018-05-07T19:28:54.454Z,21.53
2018-05-07T19:31:20.940Z,21.46
2018-05-07T19:33:47.186Z,21.41
2018-05-07T19:36:13.439Z,21.31
2018-05-07T19:38:39.719Z,21.25
2018-05-07T19:41:06.179Z,21.20
2018-05-07T19:43:32.457Z,21.17
2018-05-07T19:45:58.759Z,21.12
2018-05-07T19:48:25.076Z,21.08
2018-05-07T19:50:51.374Z,21.03
2018-05-07T19:53:18.898Z,21.03
2018-05-07T19:55:45.246Z,20.98
2018-05-07T19:58:11.450Z,20.93
2018-05-07T20:00:37.721Z,20.90
2018-05-07T20:03:03.998Z,20.82
2018-05-07T20:05:30.274Z,20.78
2018-05-07T20:07:56.531Z,20.75
2018-05-07T20:10:22.823Z,20.71
2018-05-07T20:12:49.223Z,20.66
2018-05-07T20:15:15.511Z,20.60
2018-05-07T20:17:41.787Z,20.55
2018-05-07T20:20:08.037Z,20.50
2018-05-07T20:22:34.410Z,20.49
2018-05-07T20:25:00.644Z,20.44
2018-05-07T20:27:26.931Z,20.44
2018-05-07T20:29:53.214Z,20.46
2018-05-07T20:32:19.584Z,20.44
2018-05-07T20:34:45.854Z,20.44
2018-05-07T20:37:12.099Z,20.44
2018-05-07T20:39:38.387Z,20.47
2018-05-07T20:42:04.671Z,20.41
2018-05-07T20:44:31.007Z,20.37
2018-05-07T20:46:57.250Z,20.33
2018-05-07T20:49:23.505Z,20.29
2018-05-07T20:51:49.748Z,20.25
2018-05-07T20:54:15.977Z,20.19
2018-05-07T20:56:42.225Z,20.13
2018-05-07T20:59:08.446Z,20.06
2018-05-07T21:01:34.762Z,20.03
2018-05-07T21:04:00.997Z,19.99
2018-05-07T21:06:27.259Z,20.04
2018-05-07T21:08:53.504Z,20.03
2018-05-07T21:11:19.737Z,20.07
2018-05-07T21:13:46.010Z,20.02
2018-05-07T21:16:12.226Z,20.02
2018-05-07T21:18:38.486Z,20.00
2018-05-07T21:21:04.701Z,20.00
2018-05-07T21:23:30.953Z,20.04
2018-05-07T21:25:57.261Z,20.04
2018-05-07T21:28:23.571Z,20.06
2018-05-07T21:30:49.823Z,20.06
2018-05-07T21:33:16.063Z,20.04
2018-05-07T21:35:42.355Z,19.99
2018-05-07T21:38:08.594Z,19.97
2018-05-07T21:40:34.813Z,19.97
2018-05-07T21:43:01.054Z,19.95
2018-05-07T21:45:27.340Z,19.89
2018-05-07T21:47:53.590Z,19.84
2018-05-07T21:50:19.810Z,19.86
2018-05-07T21:52:46.062Z,19.82
2018-05-07T21:55:12.286Z,19.88
2018-05-07T21:57:38.538Z,19.83
2018-05-07T22:00:04.804Z,19.80
2018-05-07T22:02:31.022Z,19.80
2018-05-07T22:04:57.286Z,19.80
2018-05-07T22:07:23.545Z,19.82
2018-05-07T22:09:49.786Z,19.84
2018-05-07T22:12:16.071Z,19.78
2018-05-07T22:14:42.270Z,19.78
2018-05-07T22:17:08.498Z,19.76
2018-05-07T22:19:34.739Z,19.83
2018-05-07T22:22:00.987Z,19.80
2018-05-07T22:24:27.242Z,19.75
2018-05-07T22:26:53.482Z,19.72
2018-05-07T22:29:19.698Z,19.66
2018-05-07T22:31:45.973Z,19.61
2018-05-07T22:34:12.198Z,19.61
2018-05-07T22:36:38.437Z,19.55
2018-05-07T22:39:04.708Z,19.48
2018-05-07T22:41:30.966Z,19.48
2018-05-07T22:43:57.187Z,19.51
2018-05-07T22:46:23.446Z,19.53
2018-05-07T22:48:49.674Z,19.46
2018-05-07T22:51:15.966Z,19.47
2018-05-07T22:53:42.226Z,19.36
2018-05-07T22:56:08.446Z,19.36
2018-05-07T22:58:34.703Z,19.38
2018-05-07T23:01:00.959Z,19.38
2018-05-07T23:03:27.206Z,19.33
2018-05-07T23:05:53.440Z,19.34
2018-05-07T23:08:19.723Z,19.33
2018-05-07T23:10:45.947Z,19.33
2018-05-07T23:13:12.161Z,19.36
2018-05-07T23:15:38.398Z,19.35
2018-05-07T23:18:04.630Z,19.34
2018-05-07T23:20:30.911Z,19.28
2018-05-07T23:22:57.129Z,19.28
2018-05-07T23:25:23.394Z,19.28
2018-05-07T23:27:49.609Z,19.24
2018-05-07T23:30:15.891Z,19.18
2018-05-07T23:32:42.119Z,19.11
2018-05-07T23:35:08.338Z,19.06
2018-05-07T23:37:34.582Z,18.98
2018-05-07T23:40:00.798Z,18.87
2018-05-07T23:42:27.108Z,18.82
2018-05-07T23:44:53.334Z,18.68
2018-05-07T23:47:19.577Z,18.61
2018-05-07T23:49:45.790Z,18.52
2018-05-07T23:52:12.006Z,18.50
2018-05-07T23:54:38.246Z,18.48
2018-05-07T23:57:04.462Z,18.43
2018-05-07T23:59:30.694Z,18.36
